Time;durP1;ratioP1;P1;durP2;ratioP2;P2;SDS_P1;SDS_P2;PMS_P1;PMS_P2;Temp;Humidity;BMP_temperature;BMP_pressure;BME280_temperature;BME280_humidity;BME280_pressure;Samples;Min_cycle;Max_cycle;Signal;HPM_P1;HPM_P2
2024/03/06 00:02:16;;;;;;;0.00;0.00;;;21.70;39.60;;;;;;5011772;28;20196;-46
2024/03/06 00:04:47;;;;;;;0.00;0.00;;;21.70;39.60;;;;;;5011609;28;20197;-48
2024/03/06 00:07:18;;;;;;;0.00;0.00;;;21.70;39.60;;;;;;5011726;28;20197;-46
2024/03/06 00:09:48;;;;;;;0.00;0.00;;;21.80;39.70;;;;;;5011731;28;20208;-43
2024/03/06 00:12:19;;;;;;;0.00;0.00;;;21.80;39.60;;;;;;5011316;28;20311;-46
2024/03/06 00:14:51;;;;;;;0.00;0.00;;;21.80;39.60;;;;;;5010218;28;20280;-47
2024/03/06 00:17:22;;;;;;;0.00;0.00;;;21.90;40.20;;;;;;5011210;28;20189;-48
2024/03/06 00:19:53;;;;;;;0.00;0.00;;;21.90;40.00;;;;;;5011558;28;20208;-45
2024/03/06 00:22:23;;;;;;;0.00;0.00;;;21.90;39.60;;;;;;5011590;28;20289;-46
2024/03/06 00:24:54;;;;;;;0.10;0.10;;;21.90;39.40;;;;;;5011757;28;20280;-49
2024/03/06 00:27:25;;;;;;;0.00;0.00;;;22.00;39.30;;;;;;5010535;28;20196;-44
2024/03/06 00:29:57;;;;;;;0.00;0.00;;;22.00;39.30;;;;;;5011061;28;20197;-46
2024/03/06 00:32:28;;;;;;;0.00;0.00;;;22.00;39.20;;;;;;5011094;28;20244;-46
2024/03/06 00:34:59;;;;;;;0.08;0.08;;;22.10;39.30;;;;;;5011729;28;20550;-46
2024/03/06 00:37:29;;;;;;;0.00;0.00;;;22.10;39.30;;;;;;5011992;28;20671;-44
2024/03/06 00:40:00;;;;;;;0.00;0.00;;;22.10;39.30;;;;;;5010768;28;20193;-47
2024/03/06 00:42:30;;;;;;;0.00;0.00;;;22.10;39.20;;;;;;5010554;28;20637;-47
2024/03/06 00:45:04;;;;;;;0.00;0.00;;;22.10;39.30;;;;;;5011641;28;20208;-48
2024/03/06 00:47:34;;;;;;;0.00;0.00;;;22.10;39.20;;;;;;5010758;28;20280;-46
2024/03/06 00:50:07;;;;;;;0.00;0.00;;;22.20;39.90;;;;;;5011473;28;20220;-45
2024/03/06 00:52:38;;;;;;;0.10;0.10;;;22.20;39.30;;;;;;5011681;28;20229;-43
2024/03/06 00:55:09;;;;;;;0.00;0.00;;;22.20;39.30;;;;;;5011475;28;20204;-46
2024/03/06 00:57:40;;;;;;;0.00;0.00;;;22.30;39.40;;;;;;5011288;28;20677;-43
2024/03/06 01:00:13;;;;;;;0.00;0.00;;;22.30;39.30;;;;;;5011179;28;20724;-49
2024/03/06 01:02:44;;;;;;;0.00;0.00;;;22.30;39.30;;;;;;5011621;28;20261;-45
2024/03/06 01:05:15;;;;;;;0.00;0.00;;;22.30;39.30;;;;;;5011392;28;20727;-47
2024/03/06 01:07:45;;;;;;;0.10;0.10;;;22.30;39.20;;;;;;5010985;28;20204;-44
2024/03/06 01:10:16;;;;;;;0.00;0.00;;;22.40;39.20;;;;;;5011060;28;20744;-46
2024/03/06 01:12:47;;;;;;;0.00;0.00;;;22.40;39.10;;;;;;5010457;28;20278;-48
2024/03/06 01:15:19;;;;;;;0.00;0.00;;;22.40;38.90;;;;;;5011001;28;20197;-44
2024/03/06 01:17:50;;;;;;;0.10;0.10;;;22.40;38.90;;;;;;5011217;28;20196;-47
2024/03/06 01:20:20;;;;;;;0.00;0.00;;;22.40;38.90;;;;;;5010877;28;20569;-49
2024/03/06 01:22:51;;;;;;;0.00;0.00;;;22.50;38.90;;;;;;5010767;28;20196;-44
2024/03/06 01:25:22;;;;;;;0.00;0.00;;;22.50;38.90;;;;;;5011175;28;20224;-48
2024/03/06 01:27:52;;;;;;;0.00;0.00;;;22.50;38.70;;;;;;5010516;28;20204;-49
2024/03/06 01:30:25;;;;;;;0.10;0.10;;;22.60;38.70;;;;;;5010548;28;20270;-43
2024/03/06 01:32:55;;;;;;;0.00;0.00;;;22.60;38.80;;;;;;5011081;28;20278;-44
2024/03/06 01:35:27;;;;;;;0.00;0.00;;;22.60;38.80;;;;;;5010495;28;20267;-43
2024/03/06 01:37:58;;;;;;;0.00;0.00;;;22.60;38.80;;;;;;5010254;28;20203;-47
2024/03/06 01:40:29;;;;;;;0.00;0.00;;;22.60;38.70;;;;;;5010880;28;20228;-48
2024/03/06 01:43:01;;;;;;;0.00;0.00;;;22.70;38.70;;;;;;5010806;28;20220;-45
2024/03/06 01:45:33;;;;;;;0.00;0.00;;;22.60;38.80;;;;;;5010712;28;20203;-41
2024/03/06 01:48:04;;;;;;;0.08;0.08;;;22.70;38.70;;;;;;5010294;28;20200;-42
2024/03/06 01:50:34;;;;;;;0.00;0.00;;;22.70;38.70;;;;;;5010827;28;20563;-41
2024/03/06 01:53:05;;;;;;;0.00;0.00;;;22.70;38.80;;;;;;5011626;28;20620;-47
2024/03/06 01:55:36;;;;;;;0.00;0.00;;;22.80;38.70;;;;;;5014496;28;20209;-46
2024/03/06 01:58:07;;;;;;;0.00;0.00;;;22.80;38.60;;;;;;5014675;28;20203;-44
2024/03/06 02:00:40;;;;;;;0.00;0.00;;;22.80;38.60;;;;;;5014078;28;20666;-45
2024/03/06 02:03:11;;;;;;;0.00;0.00;;;22.90;38.70;;;;;;5013672;28;20581;-48
2024/03/06 02:05:43;;;;;;;0.00;0.00;;;22.90;38.60;;;;;;5014156;28;20591;-48
2024/03/06 02:08:13;;;;;;;0.03;0.03;;;22.90;38.60;;;;;;5014171;28;20283;-45
2024/03/06 02:10:44;;;;;;;0.00;0.00;;;22.90;38.60;;;;;;5014630;28;20212;-46
2024/03/06 02:13:15;;;;;;;0.10;0.10;;;23.00;38.70;;;;;;5013814;28;20220;-46
2024/03/06 02:15:48;;;;;;;0.00;0.00;;;23.00;38.60;;;;;;5014245;28;20259;-44
2024/03/06 02:18:19;;;;;;;0.00;0.00;;;23.00;38.50;;;;;;5011510;28;20558;-44
2024/03/06 02:20:51;;;;;;;0.10;0.10;;;23.00;38.50;;;;;;5013800;28;20212;-46
2024/03/06 02:23:22;;;;;;;0.00;0.00;;;23.00;38.20;;;;;;5013972;28;20197;-46
2024/03/06 02:25:53;;;;;;;0.00;0.00;;;23.00;38.10;;;;;;5014036;28;20259;-43
2024/03/06 02:28:23;;;;;;;0.10;0.10;;;23.10;38.00;;;;;;5013560;28;20200;-47
2024/03/06 02:30:54;;;;;;;0.00;0.00;;;23.10;37.90;;;;;;5013166;28;20673;-46
2024/03/06 02:33:25;;;;;;;0.00;0.00;;;23.10;38.10;;;;;;5013480;28;20217;-49
2024/03/06 02:35:58;;;;;;;0.10;0.10;;;23.10;38.10;;;;;;5013582;28;20255;-43
2024/03/06 02:38:29;;;;;;;0.00;0.00;;;23.10;38.20;;;;;;5014204;28;20220;-48
2024/03/06 02:41:00;;;;;;;0.10;0.10;;;23.10;38.20;;;;;;5013544;28;20221;-43
2024/03/06 02:43:30;;;;;;;0.10;0.10;;;23.10;38.10;;;;;;5013505;28;20197;-41
2024/03/06 02:46:01;;;;;;;0.00;0.00;;;23.20;38.20;;;;;;5013928;28;20200;-43
2024/03/06 02:48:32;;;;;;;0.00;0.00;;;23.10;38.30;;;;;;5013390;28;20197;-45
2024/03/06 02:51:04;;;;;;;0.00;0.00;;;23.20;38.30;;;;;;5012856;28;20217;-46
2024/03/06 02:53:35;;;;;;;0.10;0.10;;;23.20;38.30;;;;;;5013451;28;20228;-43
2024/03/06 02:56:06;;;;;;;0.00;0.00;;;23.20;38.20;;;;;;5013176;28;20208;-45
2024/03/06 02:58:39;;;;;;;0.00;0.00;;;23.20;38.20;;;;;;5013036;28;20204;-45
2024/03/06 03:01:09;;;;;;;0.00;0.00;;;23.20;38.20;;;;;;5013051;28;20229;-46
2024/03/06 03:03:42;;;;;;;0.00;0.00;;;23.20;38.20;;;;;;5006571;28;20229;-44
2024/03/06 03:06:15;;;;;;;0.00;0.00;;;23.20;38.20;;;;;;5009283;28;20204;-41
2024/03/06 03:08:45;;;;;;;0.00;0.00;;;23.30;38.50;;;;;;5009708;28;20526;-41
2024/03/06 03:11:16;;;;;;;0.00;0.00;;;23.30;38.60;;;;;;5008121;28;20279;-42
2024/03/06 03:13:46;;;;;;;0.00;0.00;;;23.40;38.60;;;;;;5007980;28;20661;-41
2024/03/06 03:16:21;;;;;;;0.00;0.00;;;23.40;38.60;;;;;;5009565;28;20201;-41
2024/03/06 03:18:51;;;;;;;0.00;0.00;;;23.40;38.60;;;;;;5010165;28;20270;-43
2024/03/06 03:21:24;;;;;;;0.00;0.00;;;23.50;38.60;;;;;;5009283;28;20783;-41
2024/03/06 03:23:55;;;;;;;0.00;0.00;;;23.50;38.60;;;;;;5009033;28;20204;-41
2024/03/06 03:26:25;;;;;;;0.00;0.00;;;23.50;38.60;;;;;;5009004;28;20258;-42
2024/03/06 03:28:57;;;;;;;0.10;0.10;;;23.60;38.50;;;;;;5008739;28;20306;-46
2024/03/06 03:31:27;;;;;;;0.10;0.10;;;23.60;38.40;;;;;;5009583;28;20217;-42
2024/03/06 03:33:58;;;;;;;0.10;0.10;;;23.70;38.50;;;;;;5008766;28;20278;-45
2024/03/06 03:36:31;;;;;;;0.10;0.10;;;23.70;38.40;;;;;;5008302;28;20910;-42
2024/03/06 03:39:02;;;;;;;0.00;0.00;;;23.70;38.40;;;;;;5008541;28;20327;-41
2024/03/06 03:41:34;;;;;;;0.10;0.10;;;23.80;38.40;;;;;;5009385;28;20225;-41
2024/03/06 03:44:04;;;;;;;0.00;0.00;;;23.80;38.30;;;;;;5008361;28;20200;-42
2024/03/06 03:46:35;;;;;;;0.00;0.00;;;23.80;38.30;;;;;;5008863;28;20306;-41
2024/03/06 03:49:05;;;;;;;0.00;0.00;;;23.90;38.30;;;;;;5008365;28;20255;-45
2024/03/06 03:51:38;;;;;;;0.00;0.00;;;24.00;38.30;;;;;;5007588;28;20216;-43
2024/03/06 03:54:09;;;;;;;0.10;0.10;;;24.00;38.30;;;;;;5008494;28;20645;-45
2024/03/06 03:56:40;;;;;;;0.00;0.00;;;24.00;38.20;;;;;;5008840;28;20661;-41
2024/03/06 03:59:10;;;;;;;0.00;0.00;;;24.00;38.10;;;;;;5009080;28;20208;-41
2024/03/06 04:01:41;;;;;;;0.00;0.00;;;24.00;38.00;;;;;;5007849;28;20220;-46
2024/03/06 04:04:12;;;;;;;0.00;0.00;;;24.00;37.90;;;;;;5008949;28;20213;-43
2024/03/06 04:06:45;;;;;;;0.00;0.00;;;24.00;37.80;;;;;;5008518;28;20696;-45
2024/03/06 04:09:15;;;;;;;0.00;0.00;;;24.00;37.60;;;;;;5008473;28;20205;-46
2024/03/06 04:11:46;;;;;;;0.00;0.00;;;24.00;37.50;;;;;;5008850;28;20573;-48
2024/03/06 04:14:17;;;;;;;0.00;0.00;;;24.00;37.50;;;;;;5007367;28;20794;-43
2024/03/06 04:16:48;;;;;;;0.08;0.08;;;24.00;37.70;;;;;;5008144;28;20196;-41
2024/03/06 04:19:19;;;;;;;0.00;0.00;;;24.00;37.50;;;;;;5008439;28;20669;-45
2024/03/06 04:21:51;;;;;;;0.00;0.00;;;24.00;37.50;;;;;;5008006;28;20225;-41
2024/03/06 04:24:22;;;;;;;0.00;0.00;;;24.00;37.40;;;;;;5008321;28;20212;-44
2024/03/06 04:26:52;;;;;;;0.00;0.00;;;23.90;37.30;;;;;;5008801;28;20208;-43
2024/03/06 04:29:23;;;;;;;0.00;0.00;;;23.90;37.90;;;;;;5007681;28;20197;-43
2024/03/06 04:31:53;;;;;;;0.00;0.00;;;23.90;37.30;;;;;;5008501;28;20225;-46
2024/03/06 04:34:24;;;;;;;0.05;0.05;;;23.90;37.40;;;;;;5008358;28;20231;-41
2024/03/06 04:36:57;;;;;;;0.00;0.00;;;23.90;37.30;;;;;;5008043;28;20197;-45
2024/03/06 04:39:27;;;;;;;0.00;0.00;;;23.90;37.30;;;;;;5007934;28;20213;-46
2024/03/06 04:41:58;;;;;;;0.05;0.05;;;23.90;37.30;;;;;;5007873;28;20909;-41
2024/03/06 04:44:28;;;;;;;0.00;0.00;;;23.90;37.30;;;;;;5008493;28;20211;-41
2024/03/06 04:46:59;;;;;;;0.00;0.00;;;23.90;37.30;;;;;;5007997;28;20229;-42
2024/03/06 04:49:30;;;;;;;0.00;0.00;;;23.80;37.20;;;;;;5008246;28;20197;-44
2024/03/06 04:52:02;;;;;;;0.00;0.00;;;23.80;37.30;;;;;;5006902;28;20231;-43
2024/03/06 04:54:33;;;;;;;0.00;0.00;;;23.90;37.30;;;;;;5007833;28;20204;-40
2024/03/06 04:57:04;;;;;;;0.00;0.00;;;23.80;37.30;;;;;;5007619;28;20204;-42
2024/03/06 04:59:34;;;;;;;0.00;0.00;;;23.80;37.40;;;;;;5007111;28;20205;-41
2024/03/06 05:02:05;;;;;;;0.00;0.00;;;23.80;37.40;;;;;;5008320;28;20596;-46
2024/03/06 05:04:36;;;;;;;0.00;0.00;;;23.80;37.60;;;;;;5007339;28;20571;-44
2024/03/06 05:07:08;;;;;;;0.00;0.00;;;23.80;37.70;;;;;;5007816;28;20238;-41
2024/03/06 05:09:41;;;;;;;0.00;0.00;;;23.80;37.70;;;;;;5007739;28;20211;-41
2024/03/06 05:12:12;;;;;;;0.00;0.00;;;23.80;37.70;;;;;;5007994;28;20200;-45
2024/03/06 05:14:42;;;;;;;0.00;0.00;;;23.80;37.60;;;;;;5008544;28;20204;-43
2024/03/06 05:17:13;;;;;;;0.00;0.00;;;23.80;37.70;;;;;;5007467;28;20723;-49
2024/03/06 05:19:44;;;;;;;0.00;0.00;;;23.80;37.80;;;;;;5007764;28;20201;-45
2024/03/06 05:22:17;;;;;;;0.10;0.10;;;23.80;37.80;;;;;;5006961;28;20283;-41
2024/03/06 05:24:47;;;;;;;0.00;0.00;;;23.80;37.90;;;;;;5003848;28;20201;-42
2024/03/06 05:27:18;;;;;;;0.00;0.00;;;23.80;37.90;;;;;;5005930;28;20196;-41
2024/03/06 05:29:49;;;;;;;0.00;0.00;;;23.80;37.90;;;;;;4995676;28;20303;-41
2024/03/06 05:32:19;;;;;;;0.00;0.00;;;23.80;38.00;;;;;;4991648;28;20252;-41
2024/03/06 05:34:50;;;;;;;0.00;0.00;;;23.80;38.00;;;;;;5005052;28;20211;-41
2024/03/06 05:37:23;;;;;;;0.00;0.00;;;23.80;38.10;;;;;;5010439;28;20259;-42
2024/03/06 05:39:54;;;;;;;0.00;0.00;;;23.80;38.20;;;;;;5011230;28;20215;-41
2024/03/06 05:42:24;;;;;;;0.00;0.00;;;23.80;38.20;;;;;;5011318;28;20192;-42
2024/03/06 05:44:55;;;;;;;0.00;0.00;;;23.80;38.20;;;;;;5010186;28;20212;-41
2024/03/06 05:47:26;;;;;;;0.00;0.00;;;23.80;38.30;;;;;;5011785;28;20273;-43
2024/03/06 05:49:56;;;;;;;0.00;0.00;;;23.80;38.40;;;;;;5010688;28;20240;-42
2024/03/06 05:52:29;;;;;;;0.00;0.00;;;23.80;38.40;;;;;;5010810;28;20226;-42
2024/03/06 05:54:59;;;;;;;0.00;0.00;;;23.80;38.50;;;;;;5010387;28;20843;-41
2024/03/06 05:57:30;;;;;;;0.00;0.00;;;23.80;38.50;;;;;;5012000;28;20267;-41
2024/03/06 06:00:00;;;;;;;0.03;0.03;;;23.80;38.60;;;;;;5006135;28;20205;-40
2024/03/06 06:02:31;;;;;;;0.00;0.00;;;23.80;38.60;;;;;;5011021;28;20625;-43
2024/03/06 06:05:02;;;;;;;0.00;0.00;;;23.70;38.50;;;;;;5011715;28;20255;-41
2024/03/06 06:07:34;;;;;;;0.00;0.00;;;23.80;38.60;;;;;;5009951;28;20236;-41
2024/03/06 06:10:08;;;;;;;0.00;0.00;;;23.80;38.60;;;;;;5010692;28;20204;-40
2024/03/06 06:12:38;;;;;;;0.05;0.05;;;23.70;38.60;;;;;;5010264;28;20193;-43
2024/03/06 06:15:10;;;;;;;0.00;0.00;;;23.70;38.70;;;;;;5011049;28;20199;-41
2024/03/06 06:17:43;;;;;;;0.00;0.00;;;23.70;39.00;;;;;;5014444;28;20197;-40
2024/03/06 06:20:14;;;;;;;0.10;0.10;;;23.70;38.70;;;;;;5014224;28;20746;-43
2024/03/06 06:22:47;;;;;;;0.00;0.00;;;23.70;38.80;;;;;;5014027;28;20193;-41
2024/03/06 06:25:18;;;;;;;0.00;0.00;;;23.70;38.80;;;;;;5014021;28;20282;-41
2024/03/06 06:27:49;;;;;;;0.00;0.00;;;23.60;38.80;;;;;;5014281;28;20284;-41
2024/03/06 06:30:19;;;;;;;0.10;0.10;;;23.60;38.90;;;;;;5013251;28;20224;-41
2024/03/06 06:32:50;;;;;;;0.00;0.00;;;23.60;38.90;;;;;;5013951;28;20205;-41
2024/03/06 06:35:22;;;;;;;0.00;0.00;;;23.50;38.90;;;;;;5013588;28;20208;-43
2024/03/06 06:37:54;;;;;;;0.00;0.00;;;23.50;39.00;;;;;;5013178;28;20247;-42
2024/03/06 06:40:25;;;;;;;0.00;0.00;;;23.50;39.00;;;;;;5012816;28;20217;-42
2024/03/06 06:42:56;;;;;;;0.00;0.00;;;23.50;39.00;;;;;;5013648;28;20197;-41
2024/03/06 06:45:26;;;;;;;0.00;0.00;;;23.50;39.10;;;;;;5012834;28;20661;-40
2024/03/06 06:47:57;;;;;;;0.00;0.00;;;23.50;39.20;;;;;;5013591;28;20205;-45
2024/03/06 06:50:28;;;;;;;0.00;0.00;;;23.40;39.10;;;;;;5013869;28;20217;-47
2024/03/06 06:53:01;;;;;;;0.00;0.00;;;23.40;39.20;;;;;;5013644;28;20209;-41
2024/03/06 06:55:32;;;;;;;0.00;0.00;;;23.40;39.20;;;;;;5013021;28;20665;-40
2024/03/06 06:58:02;;;;;;;0.00;0.00;;;23.40;39.20;;;;;;5013527;28;20200;-41
2024/03/06 07:00:34;;;;;;;0.00;0.00;;;23.40;39.30;;;;;;5012914;28;20213;-41
2024/03/06 07:03:04;;;;;;;0.00;0.00;;;23.40;39.30;;;;;;5013692;28;20649;-42
2024/03/06 07:05:35;;;;;;;0.00;0.00;;;23.30;39.30;;;;;;5013493;28;20193;-41
2024/03/06 07:08:08;;;;;;;0.00;0.00;;;23.30;39.30;;;;;;5012974;28;20193;-42
2024/03/06 07:10:38;;;;;;;0.00;0.00;;;23.30;39.40;;;;;;5013044;28;20267;-41
2024/03/06 07:13:09;;;;;;;0.05;0.05;;;23.30;39.40;;;;;;5012584;28;20200;-42
2024/03/06 07:15:40;;;;;;;0.10;0.10;;;23.30;39.50;;;;;;5012413;28;20189;-40
2024/03/06 07:18:10;;;;;;;0.00;0.00;;;23.30;39.50;;;;;;5012975;28;20255;-42
2024/03/06 07:20:43;;;;;;;0.00;0.00;;;23.20;39.40;;;;;;5012883;28;20627;-40
2024/03/06 07:23:16;;;;;;;0.10;0.10;;;23.20;39.50;;;;;;5012844;28;20255;-44
2024/03/06 07:25:46;;;;;;;0.00;0.00;;;23.20;39.50;;;;;;5013253;28;20205;-41
2024/03/06 07:28:17;;;;;;;0.00;0.00;;;23.20;39.60;;;;;;5012391;28;20193;-40
2024/03/06 07:30:48;;;;;;;0.00;0.00;;;23.10;39.50;;;;;;5012821;28;20739;-40
2024/03/06 07:33:18;;;;;;;0.10;0.10;;;23.20;39.60;;;;;;5012556;28;20642;-40
2024/03/06 07:35:49;;;;;;;0.05;0.05;;;23.10;39.60;;;;;;5012383;28;20661;-43
2024/03/06 07:38:21;;;;;;;0.00;0.00;;;23.10;39.60;;;;;;5012732;28;20228;-41
2024/03/06 07:40:52;;;;;;;0.00;0.00;;;23.10;39.70;;;;;;5012861;28;20225;-42
2024/03/06 07:43:23;;;;;;;0.00;0.00;;;23.10;39.70;;;;;;5012222;28;20295;-41
2024/03/06 07:45:54;;;;;;;0.00;0.00;;;23.00;39.60;;;;;;5012568;28;20598;-41
2024/03/06 07:48:25;;;;;;;0.00;0.00;;;23.10;39.70;;;;;;5012084;28;20204;-42
2024/03/06 07:50:55;;;;;;;0.00;0.00;;;23.00;39.70;;;;;;5011277;28;20216;-42
2024/03/06 07:53:28;;;;;;;0.00;0.00;;;23.00;39.70;;;;;;5012149;28;20221;-40
2024/03/06 07:55:58;;;;;;;0.00;0.00;;;23.00;39.70;;;;;;5011850;28;20204;-43
2024/03/06 07:58:29;;;;;;;0.10;0.10;;;23.00;39.70;;;;;;5012149;28;20192;-45
2024/03/06 08:01:00;;;;;;;0.00;0.00;;;23.00;39.80;;;;;;5011689;28;20209;-51
2024/03/06 08:03:30;;;;;;;0.00;0.00;;;23.00;40.30;;;;;;5008356;28;20200;-47
2024/03/06 08:06:02;;;;;;;0.00;0.00;;;23.10;40.40;;;;;;5012228;28;20200;-40
2024/03/06 08:08:34;;;;;;;0.00;0.00;;;23.10;40.40;;;;;;5007222;28;20205;-41
2024/03/06 08:11:05;;;;;;;0.10;0.10;;;23.10;40.50;;;;;;5008713;28;20224;-40
2024/03/06 08:13:35;;;;;;;0.08;0.08;;;23.10;40.50;;;;;;5007910;28;20586;-41
2024/03/06 08:16:06;;;;;;;0.00;0.00;;;23.10;40.50;;;;;;5007443;28;20197;-40
2024/03/06 08:18:37;;;;;;;0.00;0.00;;;23.10;40.60;;;;;;5008782;28;20197;-40
2024/03/06 08:21:08;;;;;;;0.00;0.00;;;23.10;40.60;;;;;;5008328;28;20279;-40
2024/03/06 08:23:40;;;;;;;0.03;0.03;;;23.10;40.70;;;;;;5008628;28;20201;-41
2024/03/06 08:26:11;;;;;;;0.00;0.00;;;23.10;40.60;;;;;;5007556;28;20216;-40
2024/03/06 08:28:42;;;;;;;0.00;0.00;;;23.10;40.60;;;;;;4988978;28;20268;-40
2024/03/06 08:31:12;;;;;;;0.00;0.00;;;23.10;40.60;;;;;;4988442;28;20588;-40
2024/03/06 08:33:44;;;;;;;0.10;0.10;;;23.10;40.70;;;;;;4989914;28;20280;-45
2024/03/06 08:36:15;;;;;;;0.00;0.00;;;23.10;40.60;;;;;;5007624;28;20206;-41
2024/03/06 08:38:47;;;;;;;0.00;0.00;;;23.10;40.60;;;;;;5008200;28;20208;-40
2024/03/06 08:41:18;;;;;;;0.00;0.00;;;23.10;40.60;;;;;;5007235;28;20598;-40
2024/03/06 08:43:48;;;;;;;0.00;0.00;;;23.10;40.60;;;;;;5007290;28;20588;-41
2024/03/06 08:46:19;;;;;;;0.10;0.10;;;23.10;40.60;;;;;;5008546;28;20196;-42
2024/03/06 08:48:50;;;;;;;0.00;0.00;;;23.10;40.60;;;;;;5008535;28;20201;-41
2024/03/06 08:51:21;;;;;;;0.00;0.00;;;23.10;40.60;;;;;;5008286;28;20282;-40
2024/03/06 08:53:54;;;;;;;0.00;0.00;;;23.10;40.60;;;;;;5007379;28;20225;-43
2024/03/06 08:56:28;;;;;;;0.05;0.05;;;23.10;40.50;;;;;;5008757;28;20200;-54
2024/03/06 08:58:59;;;;;;;0.00;0.00;;;23.10;40.50;;;;;;5007697;28;20211;-41
2024/03/06 09:01:29;;;;;;;0.00;0.00;;;23.10;40.50;;;;;;5007926;28;20348;-40
2024/03/06 09:04:00;;;;;;;0.05;0.05;;;23.10;40.50;;;;;;5007319;28;20204;-40
2024/03/06 09:06:31;;;;;;;0.00;0.00;;;23.00;40.40;;;;;;5007248;28;20244;-41
2024/03/06 09:09:05;;;;;;;0.00;0.00;;;23.10;40.50;;;;;;5007896;28;20653;-44
2024/03/06 09:11:36;;;;;;;0.00;0.00;;;23.00;40.40;;;;;;5007652;28;20220;-40
2024/03/06 09:14:06;;;;;;;0.00;0.00;;;23.00;40.40;;;;;;5007410;28;20228;-40
2024/03/06 09:16:37;;;;;;;0.00;0.00;;;23.00;40.40;;;;;;5007201;28;20201;-42
2024/03/06 09:19:07;;;;;;;0.00;0.00;;;23.00;40.40;;;;;;5008434;28;20207;-41
2024/03/06 09:21:38;;;;;;;0.00;0.00;;;23.00;40.50;;;;;;5007102;28;20271;-40
2024/03/06 09:24:11;;;;;;;0.00;0.00;;;23.00;40.40;;;;;;5007947;28;20212;-41
2024/03/06 09:26:43;;;;;;;0.00;0.00;;;23.00;40.40;;;;;;5007134;28;20207;-46
2024/03/06 09:29:14;;;;;;;0.00;0.00;;;23.00;40.50;;;;;;5007188;28;20234;-40
2024/03/06 09:31:44;;;;;;;0.00;0.00;;;23.00;40.50;;;;;;5007017;28;20224;-41
2024/03/06 09:34:15;;;;;;;0.00;0.00;;;23.00;40.50;;;;;;5007966;28;20274;-42
2024/03/06 09:36:50;;;;;;;0.00;0.00;;;23.00;40.50;;;;;;5007494;28;20254;-43
2024/03/06 09:39:22;;;;;;;0.00;0.00;;;22.90;40.40;;;;;;5007785;28;20212;-41
2024/03/06 09:41:53;;;;;;;0.00;0.00;;;22.90;40.40;;;;;;5008002;28;20235;-41
2024/03/06 09:44:24;;;;;;;0.00;0.00;;;22.90;40.40;;;;;;5007653;28;20266;-40
2024/03/06 09:46:57;;;;;;;0.00;0.00;;;22.90;40.40;;;;;;5007710;28;20606;-41
2024/03/06 09:49:28;;;;;;;0.00;0.00;;;22.90;40.40;;;;;;5008200;28;20473;-40
2024/03/06 09:51:59;;;;;;;0.00;0.00;;;22.90;40.40;;;;;;5007695;28;20216;-40
2024/03/06 09:54:31;;;;;;;0.03;0.03;;;22.90;40.40;;;;;;5006468;28;20229;-43
2024/03/06 09:57:02;;;;;;;0.00;0.00;;;22.80;40.40;;;;;;5007003;28;20567;-41
2024/03/06 09:59:33;;;;;;;0.00;0.00;;;22.80;40.40;;;;;;5007352;28;20509;-45
2024/03/06 10:02:08;;;;;;;0.00;0.00;;;22.80;40.50;;;;;;5006958;28;20217;-40
2024/03/06 10:04:38;;;;;;;0.10;0.10;;;22.80;40.40;;;;;;5006917;28;20200;-44
2024/03/06 10:07:10;;;;;;;0.00;0.00;;;22.80;40.40;;;;;;5005844;28;20604;-40
2024/03/06 10:09:44;;;;;;;0.00;0.00;;;22.80;40.50;;;;;;5005654;28;20744;-46
2024/03/06 10:12:18;;;;;;;0.00;0.00;;;22.80;40.50;;;;;;5006026;28;20352;-42
2024/03/06 10:14:53;;;;;;;0.00;0.00;;;22.80;40.50;;;;;;5007895;28;20277;-41
2024/03/06 10:17:26;;;;;;;0.10;0.10;;;22.70;40.40;;;;;;5010963;28;20230;-40
2024/03/06 10:20:01;;;;;;;0.00;0.00;;;22.70;40.40;;;;;;5009798;28;20197;-40
2024/03/06 10:22:31;;;;;;;0.00;0.00;;;22.70;40.50;;;;;;5010627;28;20197;-43
2024/03/06 10:25:04;;;;;;;0.10;0.10;;;22.70;40.50;;;;;;5010694;28;20201;-40
2024/03/06 10:27:35;;;;;;;0.00;0.00;;;22.70;40.50;;;;;;5010296;28;20200;-40
2024/03/06 10:30:10;;;;;;;0.00;0.00;;;22.60;40.50;;;;;;5010300;28;20291;-42
2024/03/06 10:32:43;;;;;;;0.00;0.00;;;22.60;40.40;;;;;;5010442;28;20196;-42
2024/03/06 10:35:22;;;;;;;0.00;0.00;;;22.60;40.50;;;;;;5010125;28;20237;-40
2024/03/06 10:37:55;;;;;;;0.00;0.00;;;22.60;40.50;;;;;;4990306;28;20213;-40
2024/03/06 10:40:31;;;;;;;0.00;0.00;;;22.60;40.50;;;;;;4990548;28;20221;-42
2024/03/06 10:43:03;;;;;;;0.00;0.00;;;22.60;40.50;;;;;;4991074;28;20216;-40
2024/03/06 10:45:44;;;;;;;0.00;0.00;;;22.60;40.50;;;;;;4991196;28;20299;-42
2024/03/06 10:48:17;;;;;;;0.00;0.00;;;22.60;40.50;;;;;;4990199;28;20259;-41
2024/03/06 10:50:49;;;;;;;0.00;0.00;;;22.50;40.50;;;;;;4989898;28;20221;-41
2024/03/06 10:53:21;;;;;;;0.00;0.00;;;22.50;40.60;;;;;;4990326;28;20661;-42
2024/03/06 10:55:55;;;;;;;0.00;0.00;;;22.50;40.60;;;;;;5006893;28;20235;-40
2024/03/06 10:58:26;;;;;;;0.00;0.00;;;22.50;40.60;;;;;;5009778;28;20208;-45
2024/03/06 11:00:58;;;;;;;0.00;0.00;;;22.50;40.60;;;;;;5009976;28;20235;-41
2024/03/06 11:03:30;;;;;;;0.00;0.00;;;22.50;40.60;;;;;;5013134;28;20197;-45
2024/03/06 11:06:02;;;;;;;0.00;0.00;;;22.50;40.60;;;;;;5013127;28;20197;-40
2024/03/06 11:08:33;;;;;;;0.00;0.00;;;22.40;40.70;;;;;;5013026;28;20559;-47
2024/03/06 11:11:26;;;;;;;0.00;0.00;;;22.40;40.70;;;;;;5012619;28;20319;-43
2024/03/06 11:14:03;;;;;;;0.10;0.10;;;22.40;40.70;;;;;;5013254;28;20201;-40
2024/03/06 11:16:54;;;;;;;0.00;0.00;;;22.40;40.70;;;;;;5013391;28;20232;-40
2024/03/06 11:19:25;;;;;;;0.10;0.10;;;22.40;40.70;;;;;;5012379;28;20197;-42
2024/03/06 11:21:56;;;;;;;0.00;0.00;;;22.40;40.70;;;;;;5011788;28;20259;-41
2024/03/06 11:24:25;;;;;;;0.10;0.10;;;22.40;40.80;;;;;;5011540;28;20200;-43
2024/03/06 11:27:07;;;;;;;0.00;0.00;;;22.30;40.80;;;;;;5010861;28;20562;-43
2024/03/06 11:30:16;;;;;;;0.00;0.00;;;22.30;40.70;;;;;;5010436;28;20673;-40
2024/03/06 11:33:01;;;;;;;0.00;0.00;;;22.30;40.70;;;;;;5007573;28;20189;-43
2024/03/06 11:35:32;;;;;;;0.00;0.00;;;22.30;40.70;;;;;;5010334;28;20708;-43
2024/03/06 11:38:04;;;;;;;0.10;0.10;;;22.30;40.70;;;;;;5012514;28;20650;-39
2024/03/06 11:40:34;;;;;;;0.10;0.10;;;22.30;40.70;;;;;;5010354;28;20213;-40
2024/03/06 11:43:27;;;;;;;0.00;0.00;;;22.20;40.70;;;;;;5011937;28;20189;-41
2024/03/06 11:46:11;;;;;;;0.00;0.00;;;22.20;40.70;;;;;;5010188;28;20196;-41
2024/03/06 11:48:42;;;;;;;0.00;0.00;;;22.20;40.70;;;;;;5010836;28;20532;-42
2024/03/06 11:51:13;;;;;;;0.00;0.00;;;22.20;40.70;;;;;;5009717;28;20621;-40
2024/03/06 11:53:44;;;;;;;0.00;0.00;;;22.20;40.80;;;;;;5011749;28;20189;-42
2024/03/06 11:56:15;;;;;;;0.00;0.00;;;22.10;40.80;;;;;;5011666;28;20232;-41
2024/03/06 11:58:48;;;;;;;0.00;0.00;;;22.10;40.80;;;;;;5012130;28;20196;-46
2024/03/06 12:01:19;;;;;;;0.00;0.00;;;22.10;40.90;;;;;;5011506;28;20724;-42
2024/03/06 12:03:51;;;;;;;0.00;0.00;;;22.10;40.80;;;;;;5009475;28;20185;-44
2024/03/06 12:06:22;;;;;;;0.00;0.00;;;22.10;40.90;;;;;;5012363;28;20649;-42
2024/03/06 12:08:53;;;;;;;0.00;0.00;;;22.10;40.90;;;;;;5011667;28;20211;-48
2024/03/06 12:11:25;;;;;;;0.00;0.00;;;22.10;40.90;;;;;;5011351;28;20205;-48
2024/03/06 12:13:58;;;;;;;0.00;0.00;;;22.10;40.90;;;;;;5010227;28;20225;-42
2024/03/06 12:16:29;;;;;;;0.00;0.00;;;22.10;40.90;;;;;;5008818;28;20224;-44
2024/03/06 12:19:00;;;;;;;0.00;0.00;;;22.00;40.80;;;;;;5011414;28;20204;-46
2024/03/06 12:21:33;;;;;;;0.00;0.00;;;22.00;40.80;;;;;;5009252;28;20763;-43
2024/03/06 12:24:08;;;;;;;0.00;0.00;;;22.00;40.80;;;;;;5011852;28;20619;-43
2024/03/06 12:26:39;;;;;;;0.00;0.00;;;22.00;40.80;;;;;;5011254;28;20188;-41
2024/03/06 12:29:13;;;;;;;0.00;0.00;;;22.00;40.90;;;;;;5011368;28;20193;-40
2024/03/06 12:31:44;;;;;;;0.05;0.05;;;22.00;40.90;;;;;;5008335;28;20575;-40
2024/03/06 12:34:18;;;;;;;0.00;0.00;;;22.00;40.90;;;;;;5011230;28;20553;-40
2024/03/06 12:36:49;;;;;;;0.00;0.00;;;21.90;40.80;;;;;;5009318;28;20784;-45
2024/03/06 12:39:22;;;;;;;0.00;0.00;;;21.90;40.80;;;;;;5010743;28;20205;-42
2024/03/06 12:41:54;;;;;;;0.05;0.05;;;21.90;41.50;;;;;;5011712;28;20235;-40
2024/03/06 12:44:26;;;;;;;0.00;0.00;;;21.90;40.80;;;;;;5008864;28;20576;-40
2024/03/06 12:46:57;;;;;;;0.00;0.00;;;21.90;40.90;;;;;;5011119;28;20292;-42
2024/03/06 12:49:28;;;;;;;0.00;0.00;;;21.90;41.00;;;;;;5012001;28;20637;-40
2024/03/06 12:51:59;;;;;;;0.00;0.00;;;21.90;41.60;;;;;;5010383;28;20216;-40
2024/03/06 12:54:29;;;;;;;0.00;0.00;;;21.80;40.90;;;;;;5010422;28;20196;-40
2024/03/06 12:57:00;;;;;;;0.00;0.00;;;21.80;41.00;;;;;;5008710;28;20201;-41
2024/03/06 12:59:32;;;;;;;0.00;0.00;;;21.80;40.90;;;;;;5010635;28;20193;-39
2024/03/06 13:02:03;;;;;;;0.00;0.00;;;21.80;40.90;;;;;;4991427;28;20221;-40
2024/03/06 13:04:34;;;;;;;0.00;0.00;;;21.80;40.90;;;;;;4992072;28;20201;-40
2024/03/06 13:07:04;;;;;;;0.00;0.00;;;21.80;41.00;;;;;;4991906;28;20205;-41
2024/03/06 13:09:35;;;;;;;0.00;0.00;;;21.80;41.00;;;;;;4999715;28;20193;-41
2024/03/06 13:12:06;;;;;;;0.00;0.00;;;21.80;41.00;;;;;;5011048;28;20267;-41